Nubieber, CA (96068)

12:21 AM PST on March 04, 2015 (GMT -0800)
RAWS GRASSHOPPER CA US | Change Station
CLOSE
Current Station
Personal Weather Station
Location: Termo, CA
Elevation: 6158 ft
Nearby Weather Stations

Elev 6158 ft 40.78 °N, 120.78 °W | Updated 34 minutes ago

Clear
Clear
25 °F
Feels Like 25 °F
N
1
Wind Variable Wind from East
Gusts 4.0 mph

Today
High -- | Low -- °F
--% Chance of Precip.
Yesterday
High -- | Low -- °F
Precip. -- in
6:34 AM 5:58 PM
Waxing Gibbous, 98% visible
Pressure 30.17 in
Visibility 8.0 miles
Clouds Clear
Windchill 25 °F
Dew Point 13 °F
Humidity 59%
Rainfall 0.01 in
Snow Depth Not available.
UV 0 out of 12
Pollen 7.80 out of 12
Air Quality Not available.
Flu Activity Not available.
METAR KAAT 040755Z AUTO 00000KT 8SM CLR M06/M09 A3011 RMK AO2 SLP215 T10611094 400891061

More Conditions Fewer Conditions

Pressure 30.17 in
Visibility 8.0 miles
Clouds Clear
Windchill 25 °F
Dew Point 13 °F
Humidity 59%
Rainfall 0.01 in
Snow Depth Not available.
UV 0 out of 12
Pollen 7.80 out of 12
Air Quality Not available.
Flu Activity Not available.
METAR KAAT 040755Z AUTO 00000KT 8SM CLR M06/M09 A3011 RMK AO2 SLP215 T10611094 400891061

More Conditions Fewer Conditions

10-Day Weather Forecast

Almanac

Astronomy

Mar. 04, 2015 Rise Set
Actual Time
Civil Twilight
Nautical Twilight
Astronomical Twilight
Moon
Length of Visible Light
Length of Day
Tomorrow will be .
, % of the Moon is Illuminated

Today's Extremes

State Highs State Lows

Community

WunderPhotos

Upload Photos

1,802,416 photos uploaded!

WunderBlogs® & News

Nearby

Air Quality

  Air Quality AQ Index Pollutant
Not available.

Snow Depth

Station Depth Elevation

Earthquake Activity

City Distance Mag. Time & Date
Minimum magnitude displayed is 2.5.

Coastal Water Temperatures

Place Temperature

Nearby Weather Stations